Terminal Aerodrome Forecast
Issued by NWS

Home | Current Version | Previous Version | Text Only | Print | Product List | Glossary On
Versions: 1 2 3 4 5 6 7 8 9 10 11 12 13 14 15 16 17 18 19 20 21 22 23 24 25
000
FTUS41 KCAR 261720
TAFHUL
TAF
KHUL 261720Z 2618/2718 34005KT P6SM FEW050 SCT200
     FM262000 03004KT P6SM BKN200
     FM270700 03005KT P6SM SCT060 OVC090
     FM271100 04011G18KT P6SM -SN OVC030
     FM271400 03010G20KT 2SM -SN OVC030
     FM271700 03012G25KT 1/2SM SN OVC008=

USA.gov is the U.S. government's official web portal to all federal, state and local government web resources and services.